createdAt,value
2022-07-26T00:01:52.601Z,99419.63
2022-07-26T00:04:20.452Z,99430.25
2022-07-26T00:06:47.881Z,99425.91
2022-07-26T00:09:15.290Z,99417.09
2022-07-26T00:11:42.930Z,99402.12
2022-07-26T00:14:10.346Z,99416.19
2022-07-26T00:16:38.345Z,99410.06
2022-07-26T00:19:09.945Z,99401.22
2022-07-26T00:21:40.745Z,99401.22
2022-07-26T00:24:08.865Z,99400.38
2022-07-26T00:26:36.270Z,99397.75
2022-07-26T00:29:06.094Z,99389.16
2022-07-26T00:31:34.235Z,99390.91
2022-07-26T00:34:01.735Z,99397.88
2022-07-26T00:36:29.825Z,99396.12
2022-07-26T00:38:57.630Z,99392.84
2022-07-26T00:41:25.096Z,99391.81
2022-07-26T00:43:57.362Z,99386.88
2022-07-26T00:46:25.203Z,99380.31
2022-07-26T00:48:52.744Z,99391.63
2022-07-26T00:51:21.032Z,99393.41
2022-07-26T00:53:49.134Z,99393.16
2022-07-26T00:56:16.939Z,99384.50
2022-07-26T00:58:44.796Z,99386.00
2022-07-26T01:01:12.571Z,99378.31
2022-07-26T01:03:40.189Z,99380.31
2022-07-26T01:06:07.676Z,99372.19
2022-07-26T01:08:35.396Z,99366.56
2022-07-26T01:11:02.890Z,99354.84
2022-07-26T01:13:34.757Z,99366.19
2022-07-26T01:16:03.659Z,99353.66
2022-07-26T01:18:31.155Z,99358.50
2022-07-26T01:21:00.897Z,99358.50
2022-07-26T01:23:28.904Z,99359.13
2022-07-26T01:25:59.625Z,99351.22
2022-07-26T01:28:27.763Z,99353.53
2022-07-26T01:30:55.694Z,99353.03
2022-07-26T01:33:23.146Z,99352.78
2022-07-26T01:35:50.836Z,99345.72
2022-07-26T01:38:18.659Z,99335.47
2022-07-26T01:40:46.068Z,99333.53
2022-07-26T01:43:13.506Z,99331.25
2022-07-26T01:45:41.250Z,99326.06
2022-07-26T01:48:08.727Z,99327.34
2022-07-26T01:50:36.929Z,99330.81
2022-07-26T01:53:06.106Z,99331.94
2022-07-26T01:55:34.327Z,99330.44
2022-07-26T01:58:01.883Z,99324.25
2022-07-26T02:00:29.617Z,99333.75
2022-07-26T02:02:57.709Z,99323.63
2022-07-26T02:05:25.261Z,99327.84
2022-07-26T02:07:52.725Z,99324.56
2022-07-26T02:10:20.836Z,99323.41
2022-07-26T02:12:49.643Z,99324.53
2022-07-26T02:15:17.210Z,99322.66
2022-07-26T02:17:44.954Z,99327.19
2022-07-26T02:20:12.979Z,99330.75
2022-07-26T02:22:40.399Z,99338.06
2022-07-26T02:25:08.237Z,99335.38
2022-07-26T02:27:35.716Z,99346.78
2022-07-26T02:30:03.608Z,99339.84
2022-07-26T02:32:31.369Z,99338.81
2022-07-26T02:34:58.746Z,99338.72
2022-07-26T02:37:26.148Z,99332.66
2022-07-26T02:39:53.922Z,99335.28
2022-07-26T02:42:22.532Z,99344.22
2022-07-26T02:44:50.000Z,99349.44
2022-07-26T02:47:17.707Z,99339.72
2022-07-26T02:49:45.099Z,99336.06
2022-07-26T02:52:12.649Z,99335.28
2022-07-26T02:54:40.293Z,99328.25
2022-07-26T02:57:07.763Z,99332.59
2022-07-26T02:59:35.160Z,99327.41
2022-07-26T03:02:03.046Z,99338.97
2022-07-26T03:04:30.498Z,99340.66
2022-07-26T03:06:57.919Z,99337.13
2022-07-26T03:09:25.692Z,99331.84
2022-07-26T03:11:53.321Z,99333.62
2022-07-26T03:14:20.716Z,99338.78
2022-07-26T03:16:48.381Z,99336.97
2022-07-26T03:19:15.777Z,99329.00
2022-07-26T03:21:43.154Z,99331.56
2022-07-26T03:24:11.137Z,99343.97
2022-07-26T03:26:38.933Z,99342.31
2022-07-26T03:29:06.433Z,99344.97
2022-07-26T03:31:36.383Z,99336.28
2022-07-26T03:34:04.402Z,99332.72
2022-07-26T03:36:32.105Z,99336.28
2022-07-26T03:39:00.518Z,99333.66
2022-07-26T03:41:28.037Z,99337.16
2022-07-26T03:43:55.460Z,99328.34
2022-07-26T03:46:23.382Z,99323.22
2022-07-26T03:48:50.872Z,99323.22
2022-07-26T03:51:18.336Z,99326.72
2022-07-26T03:53:46.071Z,99323.22
2022-07-26T03:56:28.934Z,99327.56
2022-07-26T03:58:59.101Z,99322.13
2022-07-26T04:01:27.232Z,99316.75
2022-07-26T04:03:54.946Z,99315.84
2022-07-26T04:06:23.173Z,99305.31
2022-07-26T04:08:50.730Z,99306.09
2022-07-26T04:11:18.507Z,99306.94
2022-07-26T04:13:46.114Z,99308.22
2022-07-26T04:16:14.455Z,99295.59
2022-07-26T04:18:42.624Z,99294.44
2022-07-26T04:21:10.092Z,99304.88
2022-07-26T04:23:37.485Z,99302.94
2022-07-26T04:26:05.631Z,99305.72
2022-07-26T04:28:33.415Z,99304.97
2022-07-26T04:31:00.983Z,99304.66
2022-07-26T04:33:28.720Z,99313.72
2022-07-26T04:35:56.213Z,99354.38
2022-07-26T04:38:23.673Z,99423.06
2022-07-26T04:40:51.899Z,99436.06
2022-07-26T04:43:19.824Z,99385.09
2022-07-26T04:45:47.608Z,99388.22
2022-07-26T04:48:16.013Z,99393.00
2022-07-26T04:50:43.714Z,99372.81
2022-07-26T04:53:11.288Z,99381.31
2022-07-26T04:55:39.553Z,99373.50
2022-07-26T04:58:07.253Z,99379.53
2022-07-26T05:00:51.106Z,99375.28
2022-07-26T05:03:25.305Z,99379.38
2022-07-26T05:05:52.891Z,99380.28
2022-07-26T05:08:20.442Z,99369.69
2022-07-26T05:10:53.133Z,99365.22
2022-07-26T05:13:29.465Z,99366.00
2022-07-26T05:15:59.651Z,99367.25
2022-07-26T05:18:27.617Z,99361.31
2022-07-26T05:20:57.709Z,99372.94
2022-07-26T05:23:25.158Z,99381.41
2022-07-26T05:25:52.987Z,99372.78
2022-07-26T05:28:20.763Z,99371.09
2022-07-26T05:30:48.373Z,99369.19
2022-07-26T05:33:16.599Z,99368.37
2022-07-26T05:35:44.653Z,99373.22
2022-07-26T05:38:12.385Z,99369.41
2022-07-26T05:40:39.818Z,99358.13
2022-07-26T05:43:07.756Z,99363.00
2022-07-26T05:45:35.214Z,99362.56
2022-07-26T05:48:02.692Z,99369.19
2022-07-26T05:50:30.485Z,99357.12
2022-07-26T05:52:58.280Z,99360.97
2022-07-26T05:55:25.672Z,99356.22
2022-07-26T05:57:53.329Z,99360.00
2022-07-26T06:00:21.179Z,99364.47
2022-07-26T06:02:49.343Z,99362.59
2022-07-26T06:05:17.537Z,99364.41
2022-07-26T06:07:44.950Z,99363.13
2022-07-26T06:10:13.551Z,99357.38
2022-07-26T06:12:41.196Z,99352.87
2022-07-26T06:15:15.415Z,99356.59
2022-07-26T06:17:43.811Z,99371.28
2022-07-26T06:20:11.573Z,99372.34
2022-07-26T06:22:39.022Z,99367.59
2022-07-26T06:25:07.315Z,99358.13
2022-07-26T06:27:34.793Z,99359.63
2022-07-26T06:30:02.236Z,99374.78
2022-07-26T06:32:29.929Z,99370.31
2022-07-26T06:34:57.365Z,99363.63
2022-07-26T06:37:24.986Z,99358.47
2022-07-26T06:39:53.138Z,99354.91
2022-07-26T06:42:20.548Z,99357.38
2022-07-26T06:44:48.109Z,99346.25
2022-07-26T06:47:15.832Z,99352.09
2022-07-26T06:49:44.827Z,99353.59
2022-07-26T06:52:12.303Z,99344.87
2022-07-26T06:54:40.029Z,99354.59
2022-07-26T06:57:07.958Z,99342.56
2022-07-26T06:59:35.480Z,99354.06
2022-07-26T07:02:04.040Z,99349.84
2022-07-26T07:04:33.257Z,99343.69
2022-07-26T07:07:06.453Z,99327.91
2022-07-26T07:09:35.289Z,99336.31
2022-07-26T07:12:09.813Z,99338.47
2022-07-26T07:14:39.479Z,99332.16
2022-07-26T07:17:13.109Z,99338.97
2022-07-26T07:19:42.716Z,99321.78
2022-07-26T07:22:12.235Z,99333.53
2022-07-26T07:24:40.465Z,99335.16
2022-07-26T07:27:08.525Z,99342.25
2022-07-26T07:29:36.213Z,99348.91
2022-07-26T07:32:03.956Z,99339.97
2022-07-26T07:34:31.703Z,99336.47
2022-07-26T07:36:59.942Z,99334.06
2022-07-26T07:39:34.529Z,99331.41
2022-07-26T07:42:06.236Z,99339.50
2022-07-26T07:44:33.651Z,99334.59
2022-07-26T07:47:01.198Z,99339.81
2022-07-26T07:49:28.961Z,99345.00
2022-07-26T07:51:56.441Z,99342.06
2022-07-26T07:54:23.877Z,99352.31
2022-07-26T07:56:55.059Z,99351.19
2022-07-26T07:59:23.633Z,99373.06
2022-07-26T08:01:51.319Z,99366.66
2022-07-26T08:04:19.161Z,99365.12
2022-07-26T08:06:50.078Z,99370.66
2022-07-26T08:09:19.565Z,99362.38
2022-07-26T08:11:51.120Z,99359.31
2022-07-26T08:14:19.436Z,99359.97
2022-07-26T08:16:47.081Z,99357.03
2022-07-26T08:19:15.690Z,99350.00
2022-07-26T08:21:46.090Z,99362.81
2022-07-26T08:24:14.525Z,99351.53
2022-07-26T08:26:42.013Z,99357.22
2022-07-26T08:29:10.141Z,99363.25
2022-07-26T08:31:37.939Z,99346.84
2022-07-26T08:34:05.370Z,99346.91
2022-07-26T08:36:33.329Z,99342.12
2022-07-26T08:39:01.687Z,99341.75
2022-07-26T08:41:29.270Z,99338.69
2022-07-26T08:44:05.541Z,99336.47
2022-07-26T08:46:36.273Z,99345.69
2022-07-26T08:49:06.121Z,99333.88
2022-07-26T08:51:34.294Z,99331.69
2022-07-26T08:54:05.677Z,99333.97
2022-07-26T08:56:35.530Z,99342.91
2022-07-26T08:59:05.585Z,99343.97
2022-07-26T09:01:33.648Z,99345.69
2022-07-26T09:04:31.189Z,99348.34
2022-07-26T09:07:05.787Z,99354.75
2022-07-26T09:09:38.839Z,99351.03
2022-07-26T09:12:18.314Z,99372.00
2022-07-26T09:14:47.194Z,99377.03
2022-07-26T09:17:16.670Z,99385.97
2022-07-26T09:19:45.173Z,99383.97
2022-07-26T09:22:16.921Z,99402.94
2022-07-26T09:24:46.570Z,99413.66
2022-07-26T09:27:16.696Z,99420.84
2022-07-26T09:29:48.046Z,99432.94
2022-07-26T09:32:20.975Z,99453.50
2022-07-26T09:35:44.183Z,99481.28
2022-07-26T09:37:59.247Z,99491.72
2022-07-26T09:40:34.689Z,99511.75
2022-07-26T09:43:05.521Z,99524.59
2022-07-26T09:45:36.089Z,99521.44
2022-07-26T09:48:04.319Z,99499.34
2022-07-26T09:50:33.033Z,99466.19
2022-07-26T09:53:10.396Z,99470.03
2022-07-26T09:55:45.147Z,99499.56
2022-07-26T09:58:14.454Z,99520.59
2022-07-26T10:00:43.627Z,99520.41
2022-07-26T10:03:12.022Z,99497.63
2022-07-26T10:05:39.533Z,99468.88
2022-07-26T10:08:08.008Z,99442.28
2022-07-26T10:10:40.394Z,99449.81
2022-07-26T10:13:08.818Z,99455.97
2022-07-26T10:15:43.579Z,99470.34
2022-07-26T10:18:16.754Z,99484.38
2022-07-26T10:20:48.976Z,99501.59
2022-07-26T10:23:35.057Z,99505.84
2022-07-26T10:26:04.373Z,99509.84
2022-07-26T10:28:33.841Z,99514.94
2022-07-26T10:31:26.726Z,99520.22
2022-07-26T10:33:55.409Z,99522.34
2022-07-26T10:36:25.717Z,99534.19
2022-07-26T10:39:12.011Z,99534.13
2022-07-26T10:41:44.660Z,99537.06
2022-07-26T10:44:23.718Z,99522.16
2022-07-26T10:47:10.055Z,99528.19
2022-07-26T10:49:40.394Z,99534.31
2022-07-26T10:52:12.993Z,99530.81
2022-07-26T10:54:59.144Z,99525.47
2022-07-26T10:57:27.730Z,99532.25
2022-07-26T10:59:57.873Z,99539.03
2022-07-26T11:02:32.642Z,99546.69
2022-07-26T11:05:15.070Z,99548.41
2022-07-26T11:08:10.442Z,99541.19
2022-07-26T11:10:39.684Z,99540.09
2022-07-26T11:13:12.837Z,99523.47
2022-07-26T11:15:45.928Z,99530.41
2022-07-26T11:18:28.269Z,99539.16
2022-07-26T11:20:57.794Z,99528.56
2022-07-26T11:23:33.661Z,99537.06
2022-07-26T11:26:15.168Z,99542.50
2022-07-26T11:29:06.231Z,99528.97
2022-07-26T11:31:55.917Z,99531.09
2022-07-26T11:34:35.847Z,99538.25
2022-07-26T11:37:04.976Z,99538.47
2022-07-26T11:39:34.185Z,99538.78
2022-07-26T11:42:04.390Z,99542.25
2022-07-26T11:44:32.606Z,99535.00
2022-07-26T11:47:01.001Z,99533.75
2022-07-26T11:52:25.053Z,99529.44
2022-07-26T11:54:53.778Z,99524.97
2022-07-26T11:57:22.230Z,99512.72
2022-07-26T11:59:51.378Z,99531.19
2022-07-26T12:02:20.673Z,99538.78
2022-07-26T12:04:48.397Z,99523.50
2022-07-26T12:07:18.557Z,99526.25
2022-07-26T12:09:51.505Z,99513.81
2022-07-26T12:12:31.889Z,99526.25
2022-07-26T12:15:05.718Z,99516.69
2022-07-26T12:17:35.740Z,99506.88
2022-07-26T12:20:17.437Z,99512.59
2022-07-26T12:22:57.686Z,99494.78
2022-07-26T12:25:29.372Z,99502.38
2022-07-26T12:27:57.326Z,99511.69
2022-07-26T12:30:25.699Z,99504.94
2022-07-26T12:33:02.273Z,99503.91
2022-07-26T12:35:35.607Z,99505.81
2022-07-26T12:38:03.541Z,99508.84
2022-07-26T12:40:40.393Z,99509.44
2022-07-26T12:43:08.811Z,99521.09
2022-07-26T12:45:36.406Z,99515.72
2022-07-26T12:48:10.163Z,99519.56
2022-07-26T12:50:37.989Z,99512.87
2022-07-26T12:53:07.247Z,99510.34
2022-07-26T12:55:35.603Z,99505.06
2022-07-26T12:58:03.323Z,99499.19
2022-07-26T13:00:30.898Z,99492.22
2022-07-26T13:02:58.361Z,99492.78
2022-07-26T13:05:26.062Z,99490.28
2022-07-26T13:07:54.286Z,99493.28
2022-07-26T13:10:33.112Z,99490.00
2022-07-26T13:13:02.110Z,99488.25
2022-07-26T13:15:37.267Z,99490.97
2022-07-26T13:18:07.328Z,99486.44
2022-07-26T13:20:37.847Z,99492.00
2022-07-26T13:23:06.898Z,99494.00
2022-07-26T13:25:39.638Z,99498.94
2022-07-26T13:28:08.600Z,99504.56
2022-07-26T13:30:37.647Z,99505.84
2022-07-26T13:33:05.290Z,99503.00
2022-07-26T13:35:32.991Z,99499.06
2022-07-26T13:38:00.403Z,99494.50
2022-07-26T13:40:31.583Z,99497.59
2022-07-26T13:43:00.299Z,99498.69
2022-07-26T13:45:29.035Z,99513.28
2022-07-26T13:47:58.897Z,99505.19
2022-07-26T13:50:28.408Z,99508.84
2022-07-26T13:52:56.734Z,99521.13
2022-07-26T13:55:25.104Z,99519.06
2022-07-26T13:57:56.130Z,99517.09
2022-07-26T14:00:27.169Z,99513.87
2022-07-26T14:02:56.027Z,99530.66
2022-07-26T14:05:24.522Z,99534.31
2022-07-26T14:07:52.155Z,99527.53
2022-07-26T14:10:20.913Z,99530.47
2022-07-26T14:12:48.600Z,99522.84
2022-07-26T14:15:21.587Z,99526.78
2022-07-26T14:17:52.946Z,99517.12
2022-07-26T14:20:21.506Z,99517.06
2022-07-26T14:22:53.376Z,99524.09
2022-07-26T14:25:25.119Z,99526.53
2022-07-26T14:27:54.171Z,99519.22
2022-07-26T14:30:22.375Z,99519.34
2022-07-26T14:32:49.875Z,99526.25
2022-07-26T14:35:17.452Z,99522.16
2022-07-26T14:37:46.099Z,99526.66
2022-07-26T14:40:15.619Z,99537.34
2022-07-26T14:42:43.422Z,99527.00
2022-07-26T14:45:11.650Z,99521.44
2022-07-26T14:47:39.305Z,99524.66
2022-07-26T14:50:08.157Z,99521.25
2022-07-26T14:52:40.990Z,99522.53
2022-07-26T14:55:09.193Z,99527.78
2022-07-26T14:57:39.273Z,99518.41
2022-07-26T15:00:10.023Z,99521.87
2022-07-26T15:02:43.075Z,99509.44
2022-07-26T15:05:12.221Z,99521.25
2022-07-26T15:07:40.794Z,99503.44
2022-07-26T15:10:10.619Z,99496.94
2022-07-26T15:12:38.760Z,99508.00
2022-07-26T15:15:08.767Z,99504.31
2022-07-26T15:17:36.468Z,99496.03
2022-07-26T15:20:05.159Z,99495.38
2022-07-26T15:22:32.995Z,99497.37
2022-07-26T15:25:00.441Z,99494.62
2022-07-26T15:27:27.891Z,99493.84
2022-07-26T15:30:01.046Z,99481.94
2022-07-26T15:32:31.777Z,99478.62
2022-07-26T15:34:59.741Z,99492.72
2022-07-26T15:37:27.711Z,99484.50
2022-07-26T15:39:55.143Z,99471.44
2022-07-26T15:42:23.353Z,99471.19
2022-07-26T15:44:50.970Z,99476.13
2022-07-26T15:47:36.947Z,99473.97
2022-07-26T15:50:08.431Z,99481.47
2022-07-26T15:52:42.242Z,99487.25
2022-07-26T15:55:11.624Z,99476.59
2022-07-26T15:57:39.368Z,99472.75
2022-07-26T16:00:11.071Z,99468.72
2022-07-26T16:02:40.690Z,99477.50
2022-07-26T16:05:09.054Z,99467.31
2022-07-26T16:07:36.459Z,99472.72
2022-07-26T16:10:04.832Z,99467.56
2022-07-26T16:12:33.270Z,99459.63
2022-07-26T16:15:00.947Z,99461.91
2022-07-26T16:17:28.670Z,99466.91
2022-07-26T16:19:56.138Z,99462.66
2022-07-26T16:22:23.931Z,99473.56
2022-07-26T16:24:51.734Z,99470.09
2022-07-26T16:27:19.331Z,99479.69
2022-07-26T16:29:51.996Z,99478.16
2022-07-26T16:32:21.427Z,99483.59
2022-07-26T16:34:49.155Z,99488.88
2022-07-26T16:37:16.606Z,99493.53
2022-07-26T16:39:44.584Z,99493.47
2022-07-26T16:42:12.256Z,99490.34
2022-07-26T16:44:39.786Z,99486.00
2022-07-26T16:47:07.612Z,99485.81
2022-07-26T16:59:39.791Z,99480.09
2022-07-26T17:02:09.131Z,99480.09
2022-07-26T17:04:36.847Z,99480.09
2022-07-26T17:09:52.174Z,99482.19
2022-07-26T17:12:19.634Z,99479.03
2022-07-26T17:14:47.103Z,99484.50
2022-07-26T17:17:14.887Z,99488.09
2022-07-26T17:19:42.297Z,99493.38
2022-07-26T17:22:09.695Z,99492.34
2022-07-26T17:24:37.388Z,99497.31
2022-07-26T17:27:05.161Z,99491.09
2022-07-26T17:29:33.494Z,99488.53
2022-07-26T17:32:01.379Z,99491.09
2022-07-26T17:34:28.810Z,99491.47
2022-07-26T17:36:58.511Z,99501.25
2022-07-26T17:39:40.369Z,99499.13
2022-07-26T17:42:14.864Z,99499.13
2022-07-26T17:44:42.691Z,99500.81
2022-07-26T17:47:28.355Z,99490.87
2022-07-26T17:50:13.898Z,99501.88
2022-07-26T17:52:47.598Z,99506.53
2022-07-26T17:55:15.780Z,99512.63
2022-07-26T17:57:43.204Z,99510.91
2022-07-26T18:00:11.557Z,99525.94
2022-07-26T18:02:39.314Z,99510.28
2022-07-26T18:05:07.059Z,99513.25
2022-07-26T18:07:34.611Z,99513.22
2022-07-26T18:10:02.839Z,99519.88
2022-07-26T18:12:31.304Z,99529.16
2022-07-26T18:14:58.907Z,99522.19
2022-07-26T18:17:26.840Z,99525.31
2022-07-26T18:19:54.367Z,99531.62
2022-07-26T18:22:23.253Z,99523.28
2022-07-26T18:24:51.238Z,99509.72
2022-07-26T18:27:19.682Z,99516.16
2022-07-26T18:29:47.340Z,99517.12
2022-07-26T18:32:15.377Z,99515.63
2022-07-26T18:34:51.713Z,99525.00
2022-07-26T18:37:20.581Z,99526.94
2022-07-26T18:39:52.719Z,99528.56
2022-07-26T18:42:23.260Z,99522.16
2022-07-26T18:44:50.730Z,99529.53
2022-07-26T18:47:18.269Z,99532.66
2022-07-26T18:49:46.001Z,99535.81
2022-07-26T18:52:13.433Z,99544.47
2022-07-26T18:54:40.835Z,99539.97
2022-07-26T18:57:08.559Z,99545.31
2022-07-26T18:59:36.070Z,99552.56
2022-07-26T19:02:04.309Z,99550.38
2022-07-26T19:04:32.156Z,99549.97
2022-07-26T19:06:59.679Z,99550.72
2022-07-26T19:09:27.084Z,99549.19
2022-07-26T19:11:55.217Z,99552.06
2022-07-26T19:14:22.639Z,99556.00
2022-07-26T19:16:50.370Z,99566.37
2022-07-26T19:19:18.043Z,99565.06
2022-07-26T19:21:47.283Z,99556.34
2022-07-26T19:24:14.926Z,99557.06
2022-07-26T19:26:42.702Z,99563.97
2022-07-26T19:29:10.407Z,99561.25
2022-07-26T19:31:40.370Z,99561.19
2022-07-26T19:34:08.132Z,99566.00
2022-07-26T19:36:35.570Z,99573.75
2022-07-26T19:39:04.267Z,99576.59
2022-07-26T19:41:31.987Z,99567.69
2022-07-26T19:43:59.431Z,99566.13
2022-07-26T19:46:26.946Z,99567.88
2022-07-26T19:48:55.490Z,99568.13
2022-07-26T19:51:23.056Z,99573.97
2022-07-26T19:53:50.526Z,99572.47
2022-07-26T19:56:18.457Z,99578.56
2022-07-26T19:58:46.282Z,99573.94
2022-07-26T20:01:14.004Z,99576.09
2022-07-26T20:03:41.886Z,99583.56
2022-07-26T20:06:09.324Z,99577.03
2022-07-26T20:08:36.733Z,99581.50
2022-07-26T20:11:04.428Z,99577.53
2022-07-26T20:13:31.900Z,99589.03
2022-07-26T20:15:59.992Z,99579.47
2022-07-26T20:18:28.358Z,99589.37
2022-07-26T20:20:56.337Z,99581.28
2022-07-26T20:23:24.463Z,99592.53
2022-07-26T20:25:52.142Z,99596.09
2022-07-26T20:28:19.939Z,99603.81
2022-07-26T20:30:48.499Z,99594.16
2022-07-26T20:33:16.625Z,99606.88
2022-07-26T20:35:44.563Z,99607.28
2022-07-26T20:38:12.022Z,99615.56
2022-07-26T20:40:40.161Z,99605.84
2022-07-26T20:43:07.600Z,99604.97
2022-07-26T20:45:35.168Z,99617.38
2022-07-26T20:48:03.088Z,99610.06
2022-07-26T20:50:30.539Z,99611.31
2022-07-26T20:52:58.151Z,99613.31
2022-07-26T20:55:25.893Z,99614.19
2022-07-26T20:57:53.350Z,99610.56
2022-07-26T21:00:20.850Z,99622.78
2022-07-26T21:02:48.606Z,99613.47
2022-07-26T21:05:16.089Z,99610.97
2022-07-26T21:07:55.164Z,99619.56
2022-07-26T21:10:29.264Z,99612.84
2022-07-26T21:13:00.207Z,99608.81
2022-07-26T21:15:29.080Z,99609.28
2022-07-26T21:17:57.162Z,99615.25
2022-07-26T21:20:24.800Z,99616.06
2022-07-26T21:22:52.526Z,99615.88
2022-07-26T21:25:20.081Z,99613.94
2022-07-26T21:27:47.493Z,99610.75
2022-07-26T21:30:15.184Z,99630.69
2022-07-26T21:32:42.634Z,99627.66
2022-07-26T21:35:10.456Z,99629.53
2022-07-26T21:37:39.106Z,99637.69
2022-07-26T21:40:09.032Z,99625.91
2022-07-26T21:42:36.415Z,99634.31
2022-07-26T21:45:05.023Z,99632.81
2022-07-26T21:47:33.225Z,99635.63
2022-07-26T21:50:00.648Z,99642.72
2022-07-26T21:52:28.337Z,99639.28
2022-07-26T21:54:55.753Z,99644.22
2022-07-26T21:57:23.200Z,99648.91
2022-07-26T21:59:50.954Z,99651.66
2022-07-26T22:02:19.951Z,99649.16
2022-07-26T22:04:49.658Z,99651.69
2022-07-26T22:07:17.100Z,99655.50
2022-07-26T22:09:44.562Z,99639.00
2022-07-26T22:12:12.256Z,99643.41
2022-07-26T22:14:39.713Z,99643.41
2022-07-26T22:17:07.146Z,99642.50
2022-07-26T22:19:34.829Z,99646.00
2022-07-26T22:22:04.698Z,99646.00
2022-07-26T22:24:32.416Z,99653.03
2022-07-26T22:27:00.112Z,99653.03
2022-07-26T22:29:28.023Z,99648.66
2022-07-26T22:32:07.510Z,99648.63
2022-07-26T22:34:34.939Z,99644.28
2022-07-26T22:37:02.378Z,99637.13
2022-07-26T22:39:30.204Z,99658.19
2022-07-26T22:42:15.002Z,99660.84
2022-07-26T22:44:43.797Z,99660.00
2022-07-26T22:47:11.250Z,99670.50
2022-07-26T22:49:38.798Z,99666.09
2022-07-26T22:52:06.547Z,99664.34
2022-07-26T22:54:33.957Z,99671.28
2022-07-26T22:57:01.368Z,99667.78
2022-07-26T22:59:29.164Z,99667.00
2022-07-26T23:01:57.045Z,99670.41
2022-07-26T23:04:24.597Z,99670.41
2022-07-26T23:06:52.482Z,99675.75
2022-07-26T23:09:22.303Z,99674.88
2022-07-26T23:11:49.745Z,99678.44
2022-07-26T23:14:17.517Z,99677.47
2022-07-26T23:16:45.116Z,99680.91
2022-07-26T23:19:13.050Z,99674.03
2022-07-26T23:21:40.963Z,99664.41
2022-07-26T23:24:08.499Z,99654.75
2022-07-26T23:26:36.018Z,99657.25
2022-07-26T23:29:04.603Z,99655.69
2022-07-26T23:31:32.059Z,99653.03
2022-07-26T23:33:59.618Z,99650.41
2022-07-26T23:36:28.798Z,99655.47
2022-07-26T23:38:58.482Z,99662.69
2022-07-26T23:41:26.834Z,99655.69
2022-07-26T23:43:55.036Z,99668.84
2022-07-26T23:46:23.160Z,99681.13
2022-07-26T23:48:51.401Z,99678.47
2022-07-26T23:51:19.714Z,99674.09
2022-07-26T23:53:47.583Z,99677.28
2022-07-26T23:56:15.539Z,99676.75
2022-07-26T23:58:43.457Z,99684.62
